Time;durP1;ratioP1;P1;durP2;ratioP2;P2;SDS_P1;SDS_P2;PMS_P1;PMS_P2;Temp;Humidity;BMP_temperature;BMP_pressure;BME280_temperature;BME280_humidity;BME280_pressure;Samples;Min_cycle;Max_cycle;Signal;HPM_P1;HPM_P2
2021/07/25 00:00:13;;;;;;;0.40;0.40;;;;;;;17.50;93.61;96355.97;29397;214;63009;-75
2021/07/25 00:00:45;;;;;;;0.30;0.30;;;;;;;17.52;93.73;96352.88;29397;245;63016;-80
2021/07/25 00:01:17;;;;;;;0.30;0.30;;;;;;;17.53;93.58;96355.28;29397;248;63009;-75
2021/07/25 00:01:48;;;;;;;0.40;0.40;;;;;;;17.53;93.46;96352.53;29397;237;63004;-55
2021/07/25 00:02:19;;;;;;;0.40;0.40;;;;;;;17.52;93.45;96355.63;29396;202;64013;-75
2021/07/25 00:02:51;;;;;;;0.40;0.40;;;;;;;17.52;93.42;96358.37;29397;215;63004;-54
2021/07/25 00:03:23;;;;;;;0.40;0.40;;;;;;;17.51;93.15;96357.56;29397;275;63014;-73
2021/07/25 00:03:56;;;;;;;0.40;0.40;;;;;;;17.51;93.30;96357.56;29397;216;63004;-73
2021/07/25 00:04:31;;;;;;;0.40;0.40;;;;;;;17.52;93.25;96352.88;29396;229;64008;-54
2021/07/25 00:05:05;;;;;;;0.40;0.40;;;;;;;17.53;93.28;96363.50;29397;225;63005;-71
2021/07/25 00:05:39;;;;;;;0.40;0.40;;;;;;;17.53;93.52;96354.47;29397;230;63028;-74
2021/07/25 00:06:17;;;;;;;0.40;0.40;;;;;;;17.55;93.54;96363.16;29397;227;63005;-54
2021/07/25 00:06:48;;;;;;;0.40;0.40;;;;;;;17.55;93.70;96360.41;29397;296;63009;-75
2021/07/25 00:07:20;;;;;;;0.40;0.40;;;;;;;17.53;93.84;96359.97;29396;329;64009;-73
2021/07/25 00:07:51;;;;;;;0.40;0.40;;;;;;;17.53;93.89;96366.25;29397;220;63009;-74
2021/07/25 00:08:27;;;;;;;0.40;0.40;;;;;;;17.53;93.69;96359.97;29397;209;63005;-74
2021/07/25 00:08:58;;;;;;;0.40;0.40;;;;;;;17.52;93.86;96363.84;29397;333;63009;-74
2021/07/25 00:09:29;;;;;;;0.40;0.40;;;;;;;17.51;93.78;96351.28;29397;334;63004;-74
2021/07/25 00:10:05;;;;;;;0.40;0.40;;;;;;;17.51;94.00;96352.09;29397;218;63009;-74
2021/07/25 00:10:36;;;;;;;0.40;0.40;;;;;;;17.50;94.00;96345.00;29397;204;63004;-73
2021/07/25 00:11:07;;;;;;;0.40;0.40;;;;;;;17.51;93.99;96345.81;29397;224;63025;-55
2021/07/25 00:11:38;;;;;;;0.40;0.40;;;;;;;17.50;93.92;96344.22;29397;222;63004;-74
2021/07/25 00:12:11;;;;;;;0.40;0.40;;;;;;;17.51;93.92;96340.31;29397;343;63009;-55
2021/07/25 00:12:43;;;;;;;0.30;0.30;;;;;;;17.51;94.17;96345.81;29396;233;64009;-74
2021/07/25 00:13:16;;;;;;;0.40;0.40;;;;;;;17.49;94.00;96342.59;29397;197;63009;-73
2021/07/25 00:13:51;;;;;;;0.40;0.40;;;;;;;17.49;94.00;96339.88;29396;207;63017;-73
2021/07/25 00:14:22;;;;;;;0.40;0.40;;;;;;;17.49;93.98;96331.62;29396;216;63025;-73
2021/07/25 00:14:54;;;;;;;0.37;0.37;;;;;;;17.49;93.84;96337.13;29396;210;63005;-54
2021/07/25 00:15:25;;;;;;;0.40;0.40;;;;;;;17.48;94.18;96330.84;29396;214;63009;-72
2021/07/25 00:15:57;;;;;;;0.40;0.40;;;;;;;17.49;93.92;96331.62;29395;353;64004;-54
2021/07/25 00:16:28;;;;;;;0.40;0.40;;;;;;;17.49;94.15;96332.44;29396;392;63009;-54
2021/07/25 00:16:59;;;;;;;0.40;0.40;;;;;;;17.50;93.78;96338.72;29397;240;63018;-73
2021/07/25 00:17:34;;;;;;;0.40;0.40;;;;;;;17.51;94.05;96337.56;29396;223;63009;-74
2021/07/25 00:18:05;;;;;;;0.40;0.40;;;;;;;17.52;94.06;96336.44;29395;253;64008;-54
2021/07/25 00:18:37;;;;;;;0.40;0.40;;;;;;;17.50;93.96;96328.53;29396;224;63008;-73
2021/07/25 00:19:12;;;;;;;0.40;0.40;;;;;;;17.51;94.11;96326.59;29396;207;63004;-73
2021/07/25 00:19:44;;;;;;;0.40;0.40;;;;;;;17.51;93.94;96332.88;29396;218;63026;-74
2021/07/25 00:20:15;;;;;;;0.40;0.40;;;;;;;17.50;94.12;96325.81;29396;233;63005;-73
2021/07/25 00:20:47;;;;;;;0.40;0.40;;;;;;;17.50;94.08;96323.06;29396;206;63009;-74
2021/07/25 00:21:18;;;;;;;0.40;0.40;;;;;;;17.51;94.15;96326.59;29396;225;63005;-73
2021/07/25 00:21:50;;;;;;;0.40;0.40;;;;;;;17.50;94.02;96322.25;29396;299;63009;-74
2021/07/25 00:22:21;;;;;;;0.30;0.30;;;;;;;17.50;93.94;96325.00;29396;243;63005;-70
2021/07/25 00:22:52;;;;;;;0.40;0.40;;;;;;;17.50;94.09;96319.53;29396;268;63009;-73
2021/07/25 00:23:26;;;;;;;0.40;0.40;;;;;;;17.49;93.92;96312.44;29395;226;64009;-73
2021/07/25 00:23:59;;;;;;;0.40;0.40;;;;;;;17.50;94.03;96311.28;29396;228;63009;-54
2021/07/25 00:24:35;;;;;;;0.40;0.40;;;;;;;17.49;93.69;96307.75;29396;276;63004;-74
2021/07/25 00:25:08;;;;;;;0.40;0.40;;;;;;;17.49;93.62;96307.75;29395;223;64013;-76
2021/07/25 00:25:42;;;;;;;0.40;0.40;;;;;;;17.49;93.94;96305.00;29396;202;63004;-55
2021/07/25 00:26:16;;;;;;;0.40;0.40;;;;;;;17.50;93.61;96305.81;29396;233;63008;-75
2021/07/25 00:26:50;;;;;;;0.40;0.40;;;;;;;17.51;93.34;96301.91;29396;197;63012;-78
2021/07/25 00:27:27;;;;;;;0.40;0.40;;;;;;;17.51;93.19;96297.22;29395;213;64014;-74
2021/07/25 00:27:59;;;;;;;0.40;0.40;;;;;;;17.52;93.13;96303.50;29396;197;63005;-75
2021/07/25 00:28:33;;;;;;;0.40;0.40;;;;;;;17.52;92.95;96293.34;29396;238;63009;-75
2021/07/25 00:29:08;;;;;;;0.35;0.35;;;;;;;17.52;92.81;96292.53;29396;238;63005;-54
2021/07/25 00:29:39;;;;;;;0.40;0.40;;;;;;;17.52;92.78;96292.53;29396;247;63009;-55
2021/07/25 00:30:12;;;;;;;0.37;0.37;;;;;;;17.53;92.78;96297.69;29396;244;63005;-79
2021/07/25 00:30:44;;;;;;;0.40;0.40;;;;;;;17.55;92.81;96289.09;29396;243;63009;-79
2021/07/25 00:31:15;;;;;;;0.40;0.40;;;;;;;17.57;92.54;96295.03;29396;228;63004;-75
2021/07/25 00:31:49;;;;;;;0.40;0.40;;;;;;;17.57;92.52;96300.50;29396;252;63009;-74
2021/07/25 00:32:21;;;;;;;0.40;0.40;;;;;;;17.57;92.36;96295.03;29395;228;64009;-75
2021/07/25 00:32:53;;;;;;;0.40;0.40;;;;;;;17.60;92.20;96305.31;29396;202;63009;-76
2021/07/25 00:33:25;;;;;;;0.30;0.30;;;;;;;17.60;91.78;96308.03;29395;202;64008;-73
2021/07/25 00:33:56;;;;;;;0.40;0.40;;;;;;;17.57;91.93;96308.75;29396;227;63009;-75
2021/07/25 00:34:29;;;;;;;0.30;0.30;;;;;;;17.55;91.83;96311.03;29396;313;63005;-79
2021/07/25 00:35:01;;;;;;;0.40;0.40;;;;;;;17.53;91.79;96314.13;29396;245;63009;-74
2021/07/25 00:35:35;;;;;;;0.40;0.40;;;;;;;17.52;91.87;96303.50;29396;211;63005;-74
2021/07/25 00:36:07;;;;;;;0.40;0.40;;;;;;;17.50;92.13;96320.31;29396;202;63009;-71
2021/07/25 00:36:38;;;;;;;0.40;0.40;;;;;;;17.50;91.91;96308.56;29396;231;63005;-73
2021/07/25 00:37:09;;;;;;;0.40;0.40;;;;;;;17.49;92.07;96317.94;29396;218;63009;-76
2021/07/25 00:37:43;;;;;;;0.40;0.40;;;;;;;17.48;92.28;96324.56;29396;224;63005;-74
2021/07/25 00:38:15;;;;;;;0.40;0.40;;;;;;;17.46;92.36;96319.44;29395;199;64013;-71
2021/07/25 00:38:46;;;;;;;0.40;0.40;;;;;;;17.46;92.32;96330.41;29396;204;63004;-74
2021/07/25 00:39:20;;;;;;;0.40;0.40;;;;;;;17.46;92.57;96332.34;29396;204;63009;-73
2021/07/25 00:39:54;;;;;;;0.40;0.40;;;;;;;17.45;92.43;96331.53;29396;241;63015;-74
2021/07/25 00:40:44;;;;;;;0.40;0.40;;;;;;;17.43;92.60;96334.63;29396;202;63009;-74
2021/07/25 00:41:16;;;;;;;0.40;0.40;;;;;;;17.45;92.63;96341.72;29396;198;63004;-53
2021/07/25 00:41:47;;;;;;;0.40;0.40;;;;;;;17.43;92.74;96337.38;29396;199;63009;-70
2021/07/25 00:42:20;;;;;;;0.40;0.40;;;;;;;17.43;92.67;96339.31;29396;197;63005;-54
2021/07/25 00:42:52;;;;;;;0.62;0.62;;;;;;;17.44;92.75;96338.16;29396;197;63009;-74
2021/07/25 00:43:27;;;;;;;0.30;0.30;;;;;;;17.45;92.63;96344.47;29395;222;64022;-71
2021/07/25 00:43:59;;;;;;;0.40;0.40;;;;;;;17.45;92.62;96338.97;29396;273;63009;-53
2021/07/25 00:44:30;;;;;;;0.40;0.40;;;;;;;17.43;92.52;96337.38;29396;335;63005;-73
2021/07/25 00:45:03;;;;;;;0.40;0.40;;;;;;;17.42;92.86;96333.03;29396;216;63023;-74
2021/07/25 00:45:37;;;;;;;0.40;0.40;;;;;;;17.41;92.70;96334.19;29395;217;64020;-54
2021/07/25 00:46:11;;;;;;;0.40;0.40;;;;;;;17.40;92.81;96335.31;29396;210;63009;-74
2021/07/25 00:46:45;;;;;;;0.40;0.40;;;;;;;17.40;93.04;96340.81;29396;196;63004;-54
2021/07/25 00:47:17;;;;;;;0.40;0.40;;;;;;;17.39;92.88;96339.22;29396;269;63008;-75
2021/07/25 00:47:49;;;;;;;0.50;0.50;;;;;;;17.38;92.76;96336.81;29396;244;63004;-71
2021/07/25 00:48:22;;;;;;;0.40;0.40;;;;;;;17.39;92.85;96339.22;29396;235;63008;-53
2021/07/25 00:48:55;;;;;;;0.30;0.30;;;;;;;17.39;92.95;96347.44;29396;210;63011;-54
2021/07/25 00:49:28;;;;;;;0.40;0.40;;;;;;;17.39;92.77;96341.97;29395;198;64014;-54
2021/07/25 00:50:00;;;;;;;0.40;0.40;;;;;;;17.40;92.67;96340.81;29396;221;63005;-77
2021/07/25 00:50:32;;;;;;;0.40;0.40;;;;;;;17.42;92.61;96343.22;29396;224;63026;-78
2021/07/25 00:51:05;;;;;;;0.40;0.40;;;;;;;17.42;92.54;96349.50;29396;224;63005;-54
2021/07/25 00:51:40;;;;;;;0.40;0.40;;;;;;;17.42;92.47;96348.69;29396;219;63009;-75
2021/07/25 00:52:11;;;;;;;0.40;0.40;;;;;;;17.41;92.39;96347.91;29396;277;63005;-53
2021/07/25 00:52:43;;;;;;;0.40;0.40;;;;;;;17.40;92.58;96346.31;29395;229;64013;-75
2021/07/25 00:53:16;;;;;;;0.40;0.40;;;;;;;17.41;92.37;96347.91;29396;204;63004;-73
2021/07/25 00:53:51;;;;;;;0.40;0.40;;;;;;;17.40;92.17;96346.31;29396;252;63009;-75
2021/07/25 00:54:23;;;;;;;0.40;0.40;;;;;;;17.40;92.25;96340.03;29395;284;64009;-76
2021/07/25 00:54:54;;;;;;;0.40;0.40;;;;;;;17.39;92.54;96344.69;29396;208;63009;-74
2021/07/25 00:55:27;;;;;;;0.40;0.40;;;;;;;17.39;92.63;96344.69;29396;222;63004;-74
2021/07/25 00:55:58;;;;;;;0.40;0.40;;;;;;;17.39;92.47;96338.41;29396;212;63008;-54
2021/07/25 00:56:30;;;;;;;0.40;0.40;;;;;;;17.39;92.36;96346.66;29396;224;63004;-73
2021/07/25 00:57:02;;;;;;;0.40;0.40;;;;;;;17.38;92.46;96345.84;29396;214;63009;-73
2021/07/25 00:57:33;;;;;;;0.40;0.40;;;;;;;17.37;92.68;96347.00;29395;233;64009;-72
2021/07/25 00:58:04;;;;;;;0.40;0.40;;;;;;;17.37;92.54;96347.00;29396;277;63009;-53
2021/07/25 00:58:37;;;;;;;0.40;0.40;;;;;;;17.37;92.59;96341.50;29396;292;63005;-76
2021/07/25 00:59:11;;;;;;;0.40;0.40;;;;;;;17.39;92.61;96341.97;29396;202;63009;-77
2021/07/25 00:59:42;;;;;;;0.40;0.40;;;;;;;17.40;92.32;96335.31;29396;199;63005;-54
2021/07/25 01:00:14;;;;;;;0.40;0.40;;;;;;;17.40;92.49;96340.03;29396;221;63009;-72
2021/07/25 01:00:46;;;;;;;0.40;0.40;;;;;;;17.40;92.27;96335.31;29396;202;63004;-74
2021/07/25 01:01:22;;;;;;;0.40;0.40;;;;;;;17.40;92.56;96345.50;29396;224;63023;-73
2021/07/25 01:01:53;;;;;;;0.40;0.40;;;;;;;17.40;92.53;96335.31;29395;202;64009;-74
2021/07/25 01:02:30;;;;;;;0.50;0.50;;;;;;;17.40;92.65;96331.78;29396;222;63009;-74
2021/07/25 01:03:43;;;;;;;0.40;0.40;;;;;;;17.40;92.42;96324.34;29397;300;63004;-75
2021/07/25 01:04:37;;;;;;;0.40;0.40;;;;;;;17.39;92.49;96322.75;29397;226;63009;-73
2021/07/25 01:05:15;;;;;;;0.43;0.43;;;;;;;17.39;92.41;96320.03;29397;229;63005;-74
2021/07/25 01:06:24;;;;;;;0.40;0.40;;;;;;;17.39;92.28;96317.28;29397;202;63009;-74
2021/07/25 01:07:23;;;;;;;0.40;0.40;;;;;;;17.36;92.58;96312.50;29394;260;64009;-75
2021/07/25 01:08:08;;;;;;;0.40;0.40;;;;;;;17.39;91.78;96317.28;29395;206;63009;-73
2021/07/25 01:08:59;;;;;;;0.40;0.40;;;;;;;17.39;92.00;96305.50;29395;302;63004;-54
2021/07/25 01:10:14;;;;;;;0.40;0.40;;;;;;;17.37;91.89;96308.59;29480;258;125017;-73
2021/07/25 01:10:48;;;;;;;0.43;0.43;;;;;;;17.38;91.99;96304.72;29395;234;63004;-73
2021/07/25 01:11:23;;;;;;;0.50;0.50;;;;;;;17.37;91.90;96302.31;29395;212;63004;-76
2021/07/25 01:11:57;;;;;;;0.40;0.40;;;;;;;17.35;91.95;96297.19;29393;204;64014;-73
2021/07/25 01:12:47;;;;;;;0.40;0.40;;;;;;;17.36;91.90;96290.56;29395;342;63005;-75
2021/07/25 01:13:27;;;;;;;0.40;0.40;;;;;;;17.36;91.79;96289.75;29395;239;63018;-75
2021/07/25 01:14:02;;;;;;;0.40;0.40;;;;;;;17.34;91.88;96281.87;29395;230;63018;-53
2021/07/25 01:14:35;;;;;;;0.40;0.40;;;;;;;17.34;91.81;96279.13;29395;234;63014;-76
2021/07/25 01:15:10;;;;;;;0.40;0.40;;;;;;;17.35;91.64;96277.19;29395;219;63005;-75
2021/07/25 01:15:44;;;;;;;0.40;0.40;;;;;;;17.33;91.61;96285.78;29395;275;63009;-74
2021/07/25 01:16:20;;;;;;;0.40;0.40;;;;;;;17.32;91.66;96278.72;29395;221;63004;-53
2021/07/25 01:16:52;;;;;;;0.40;0.40;;;;;;;17.33;91.52;96284.97;29393;230;64013;-75
2021/07/25 01:17:36;;;;;;;0.40;0.40;;;;;;;17.32;91.54;96295.16;29395;228;63004;-73
2021/07/25 01:18:07;;;;;;;0.40;0.40;;;;;;;17.31;91.65;96299.06;29395;320;63009;-73
2021/07/25 01:18:49;;;;;;;0.40;0.40;;;;;;;17.30;91.78;96289.25;29393;198;64008;-74
2021/07/25 01:19:20;;;;;;;0.40;0.40;;;;;;;17.31;91.91;96288.09;29395;217;63009;-75
2021/07/25 01:19:52;;;;;;;0.40;0.40;;;;;;;17.31;92.25;96282.59;29395;246;63005;-77
2021/07/25 01:20:23;;;;;;;0.40;0.40;;;;;;;17.30;92.19;96275.53;29395;222;63009;-74
2021/07/25 01:20:55;;;;;;;0.40;0.40;;;;;;;17.30;92.04;96272.78;29395;216;63005;-74
2021/07/25 01:21:26;;;;;;;0.40;0.40;;;;;;;17.30;91.94;96272.78;29395;196;63009;-75
2021/07/25 01:21:57;;;;;;;0.40;0.40;;;;;;;17.32;91.76;96267.75;29395;287;63005;-77
2021/07/25 01:22:31;;;;;;;0.40;0.40;;;;;;;17.32;91.64;96256.78;29395;218;63016;-75
2021/07/25 01:23:02;;;;;;;0.40;0.40;;;;;;;17.32;91.38;96256.78;29395;210;63004;-74
2021/07/25 01:23:34;;;;;;;0.40;0.40;;;;;;;17.35;91.28;96255.25;29393;271;64013;-75
2021/07/25 01:24:05;;;;;;;0.40;0.40;;;;;;;17.35;90.87;96249.78;29395;206;63004;-76
2021/07/25 01:24:36;;;;;;;0.40;0.40;;;;;;;17.34;90.73;96250.91;29395;213;63009;-74
2021/07/25 01:25:11;;;;;;;0.40;0.40;;;;;;;17.33;90.74;96250.13;29395;254;63004;-76
2021/07/25 01:25:46;;;;;;;4.95;2.67;;;;;;;17.32;91.01;96250.50;29395;206;63008;-76
2021/07/25 01:26:24;;;;;;;0.40;0.40;;;;;;;17.29;91.10;96262.97;29395;196;63004;-75
2021/07/25 01:26:56;;;;;;;0.40;0.40;;;;;;;17.26;90.92;96258.19;29395;203;63009;-75
2021/07/25 01:27:38;;;;;;;0.40;0.40;;;;;;;17.26;91.15;96257.38;29395;346;63005;-74
2021/07/25 01:28:26;;;;;;;0.50;0.50;;;;;;;17.25;91.75;96256.59;29395;227;63009;-74
2021/07/25 01:29:02;;;;;;;0.40;0.40;;;;;;;17.23;91.86;96253.41;29393;229;64009;-77
2021/07/25 01:29:34;;;;;;;0.30;0.30;;;;;;;17.22;92.24;96262.78;29395;225;63009;-77
2021/07/25 01:30:11;;;;;;;0.40;0.40;;;;;;;17.23;91.98;96252.59;29395;203;63004;-76
2021/07/25 01:30:53;;;;;;;0.40;0.40;;;;;;;17.24;91.84;96262.44;29395;198;63009;-74
2021/07/25 01:31:40;;;;;;;;;;;;;;;17.23;91.81;96264.38;29996;983;6000;-53
2021/07/25 01:32:12;;;;;;;0.40;0.40;;;;;;;17.22;91.79;96268.25;29400;255;63004;-70
2021/07/25 01:32:44;;;;;;;0.40;0.40;;;;;;;17.25;91.88;96266.75;29395;196;63008;-73
2021/07/25 01:33:21;;;;;;;0.40;0.40;;;;;;;17.24;92.04;96263.22;29395;218;63004;-74
2021/07/25 01:33:55;;;;;;;0.40;0.40;;;;;;;17.24;91.90;96260.47;29393;241;64014;-53
2021/07/25 01:34:28;;;;;;;0.40;0.40;;;;;;;17.23;92.02;96264.38;29395;227;63005;-73
2021/07/25 01:35:02;;;;;;;0.40;0.40;;;;;;;17.23;92.09;96255.34;29395;290;63009;-73
2021/07/25 01:35:35;;;;;;;0.40;0.40;;;;;;;17.23;92.31;96263.56;29395;208;63005;-73
2021/07/25 01:36:06;;;;;;;0.40;0.40;;;;;;;17.21;92.79;96261.19;29395;203;63009;-73
2021/07/25 01:36:40;;;;;;;0.40;0.40;;;;;;;17.21;92.48;96266.66;29395;238;63005;-72
2021/07/25 01:37:13;;;;;;;0.47;0.47;;;;;;;17.21;92.65;96263.91;29395;261;63009;-52
2021/07/25 01:37:45;;;;;;;0.40;0.40;;;;;;;17.22;92.97;96265.50;29395;198;63004;-73
2021/07/25 01:38:16;;;;;;;0.40;0.40;;;;;;;17.21;93.08;96272.16;29395;290;63009;-74
2021/07/25 01:38:48;;;;;;;0.40;0.40;;;;;;;17.22;93.05;96278.44;29395;202;63004;-73
2021/07/25 01:39:20;;;;;;;0.40;0.40;;;;;;;17.21;93.26;96277.62;29393;211;64013;-71
2021/07/25 01:39:52;;;;;;;0.40;0.40;;;;;;;17.20;92.93;96276.03;29395;206;63004;-72
2021/07/25 01:40:25;;;;;;;0.40;0.40;;;;;;;17.21;93.13;96279.56;29395;274;63008;-70
2021/07/25 01:41:25;;;;;;;0.40;0.40;;;;;;;17.22;93.23;96284.72;29395;238;63004;-73
2021/07/25 01:41:56;;;;;;;0.40;0.40;;;;;;;17.23;93.31;96280.03;29395;291;63017;-53
2021/07/25 01:42:32;;;;;;;0.40;0.40;;;;;;;17.24;93.26;96281.63;29395;216;63005;-54
2021/07/25 01:43:06;;;;;;;0.40;0.40;;;;;;;17.25;93.26;96284.00;29394;208;64009;-69
2021/07/25 01:43:43;;;;;;;0.40;0.40;;;;;;;17.25;93.29;96292.22;29394;222;64009;-68
2021/07/25 01:44:14;;;;;;;0.35;0.35;;;;;;;17.27;93.04;96298.16;29395;240;63009;-52
2021/07/25 01:44:47;;;;;;;0.40;0.40;;;;;;;17.29;93.26;96312.31;29395;211;63005;-68
2021/07/25 01:45:18;;;;;;;0.40;0.40;;;;;;;17.30;92.60;96308.44;29395;224;63009;-71
2021/07/25 01:45:50;;;;;;;0.40;0.40;;;;;;;17.31;92.46;96304.53;29395;226;63004;-69
2021/07/25 01:46:21;;;;;;;0.40;0.40;;;;;;;17.31;92.56;96310.03;29395;197;63009;-71
2021/07/25 01:46:53;;;;;;;0.40;0.40;;;;;;;17.32;92.61;96305.34;29395;295;63004;-52
2021/07/25 01:47:24;;;;;;;0.40;0.40;;;;;;;17.30;92.63;96308.44;29395;234;63013;-53
2021/07/25 01:47:55;;;;;;;0.40;0.40;;;;;;;17.27;92.51;96298.16;29395;214;63004;-73
2021/07/25 01:48:27;;;;;;;0.40;0.40;;;;;;;17.26;93.03;96298.50;29394;228;64013;-73
2021/07/25 01:48:58;;;;;;;0.40;0.40;;;;;;;17.25;92.92;96300.47;29395;252;63005;-73
2021/07/25 01:49:29;;;;;;;0.40;0.40;;;;;;;17.24;92.69;96301.59;29395;222;63009;-73
2021/07/25 01:50:04;;;;;;;0.40;0.40;;;;;;;17.23;92.91;96289.03;29395;264;63005;-74
2021/07/25 01:50:35;;;;;;;0.40;0.40;;;;;;;17.23;92.96;96286.31;29395;333;63009;-74
2021/07/25 01:51:06;;;;;;;0.40;0.40;;;;;;;17.22;93.16;96279.22;29395;219;63005;-55
2021/07/25 01:51:37;;;;;;;0.40;0.40;;;;;;;17.21;93.01;96277.62;29395;214;63009;-75
2021/07/25 01:52:08;;;;;;;0.40;0.40;;;;;;;17.22;92.80;96268.25;29395;203;63005;-74
2021/07/25 01:52:42;;;;;;;0.40;0.40;;;;;;;17.22;92.81;96260.03;29395;210;63009;-54
2021/07/25 01:53:15;;;;;;;0.37;0.37;;;;;;;17.24;92.80;96268.72;29394;202;64024;-73
2021/07/25 01:53:46;;;;;;;0.40;0.40;;;;;;;17.23;92.40;96258.87;29395;213;63009;-73
2021/07/25 01:54:18;;;;;;;0.40;0.40;;;;;;;17.22;92.63;96257.28;29394;225;64009;-52
2021/07/25 01:54:49;;;;;;;0.40;0.40;;;;;;;17.22;92.64;96251.00;29395;227;63009;-73
2021/07/25 01:55:20;;;;;;;0.32;0.32;;;;;;;17.21;92.32;96258.44;29394;277;63004;-74
2021/07/25 01:55:51;;;;;;;0.40;0.40;;;;;;;17.20;92.29;96253.31;29395;300;63008;-74
2021/07/25 01:56:26;;;;;;;0.40;0.40;;;;;;;17.19;92.31;96259.94;29395;234;63005;-73
2021/07/25 01:56:57;;;;;;;0.40;0.40;;;;;;;17.19;92.70;96266.22;29394;292;64014;-52
2021/07/25 01:57:28;;;;;;;0.40;0.40;;;;;;;17.19;92.66;96270.91;29395;215;63012;-72
2021/07/25 01:57:59;;;;;;;0.40;0.40;;;;;;;17.18;93.02;96281.06;29395;247;63009;-71
2021/07/25 01:58:30;;;;;;;0.40;0.40;;;;;;;17.19;92.92;96285.41;29395;235;63011;-54
2021/07/25 01:59:02;;;;;;;0.40;0.40;;;;;;;17.19;92.96;96285.41;29395;199;63009;-70
2021/07/25 01:59:33;;;;;;;0.40;0.40;;;;;;;17.19;93.08;96296.37;29395;227;63013;-52
2021/07/25 02:00:06;;;;;;;0.40;0.40;;;;;;;17.21;93.07;96290.53;29395;205;63009;-73
2021/07/25 02:00:41;;;;;;;0.40;0.40;;;;;;;17.21;93.48;96290.53;29395;236;63004;-73
2021/07/25 02:01:12;;;;;;;0.40;0.40;;;;;;;17.20;93.18;96287.00;29395;233;63009;-52
2021/07/25 02:01:46;;;;;;;0.40;0.40;;;;;;;17.21;93.39;96296.03;29394;298;64009;-71
2021/07/25 02:02:17;;;;;;;0.40;0.40;;;;;;;17.20;93.23;96303.44;29395;222;63009;-53
2021/07/25 02:02:48;;;;;;;0.40;0.40;;;;;;;17.20;93.52;96297.97;29395;198;63004;-71
2021/07/25 02:03:24;;;;;;;0.40;0.40;;;;;;;17.20;93.09;96306.19;29395;314;63008;-73
2021/07/25 02:03:56;;;;;;;0.37;0.37;;;;;;;17.20;93.28;96311.66;29395;210;63019;-71
2021/07/25 02:04:27;;;;;;;0.40;0.40;;;;;;;17.20;93.35;96308.94;29395;280;63009;-71
2021/07/25 02:05:00;;;;;;;0.40;0.40;;;;;;;17.20;93.52;96314.41;29395;216;63005;-69
2021/07/25 02:05:34;;;;;;;0.40;0.40;;;;;;;17.22;93.23;96319.56;29394;234;64013;-73
2021/07/25 02:06:06;;;;;;;0.40;0.40;;;;;;;17.21;93.57;96318.75;29395;211;63005;-68
2021/07/25 02:06:37;;;;;;;0.40;0.40;;;;;;;17.22;93.90;96311.31;29395;253;63009;-70
2021/07/25 02:07:08;;;;;;;0.40;0.40;;;;;;;17.22;93.63;96323.09;29395;210;63005;-69
2021/07/25 02:07:44;;;;;;;0.40;0.40;;;;;;;17.24;93.40;96325.47;29395;199;63009;-69
2021/07/25 02:08:17;;;;;;;0.40;0.40;;;;;;;17.24;93.44;96326.28;29395;235;63010;-68
2021/07/25 02:08:48;;;;;;;0.40;0.40;;;;;;;17.25;93.27;96327.87;29395;277;63009;-66
2021/07/25 02:09:22;;;;;;;0.40;0.40;;;;;;;17.24;93.27;96329.03;29394;210;64009;-71
2021/07/25 02:09:54;;;;;;;0.40;0.40;;;;;;;17.25;92.97;96325.13;29395;199;63009;-68
2021/07/25 02:10:28;;;;;;;0.40;0.40;;;;;;;17.25;92.85;96325.13;29395;238;63004;-53
2021/07/25 02:10:59;;;;;;;0.40;0.40;;;;;;;17.25;93.13;96329.81;29394;204;64013;-53
2021/07/25 02:11:30;;;;;;;0.40;0.40;;;;;;;17.26;93.10;96334.94;29395;237;63005;-71
2021/07/25 02:12:04;;;;;;;0.40;0.40;;;;;;;17.26;92.82;96339.62;29395;213;63009;-53
2021/07/25 02:12:35;;;;;;;0.40;0.40;;;;;;;17.25;93.16;96338.84;29395;233;63005;-70
2021/07/25 02:13:06;;;;;;;0.40;0.40;;;;;;;17.26;92.95;96329.47;29394;199;64013;-52
2021/07/25 02:13:37;;;;;;;0.40;0.40;;;;;;;17.24;92.65;96331.75;29395;234;63005;-52
2021/07/25 02:14:09;;;;;;;0.30;0.30;;;;;;;17.27;92.88;96331.06;29395;212;63009;-72
2021/07/25 02:14:41;;;;;;;0.40;0.40;;;;;;;17.28;92.80;96327.19;29395;316;63005;-73
2021/07/25 02:15:13;;;;;;;0.37;0.37;;;;;;;17.28;93.24;96326.38;29394;199;64013;-52
2021/07/25 02:15:45;;;;;;;0.40;0.40;;;;;;;17.25;93.18;96322.38;29395;197;63004;-72
2021/07/25 02:16:16;;;;;;;0.40;0.40;;;;;;;17.24;93.20;96320.78;29395;307;63009;-72
2021/07/25 02:16:48;;;;;;;0.40;0.40;;;;;;;17.24;93.30;96323.53;29395;336;63004;-71
2021/07/25 02:17:20;;;;;;;0.35;0.35;;;;;;;17.23;93.17;96319.19;29395;295;63014;-53
2021/07/25 02:17:54;;;;;;;0.40;0.40;;;;;;;17.22;93.41;96317.59;29395;197;63004;-73
2021/07/25 02:18:25;;;;;;;0.40;0.40;;;;;;;17.21;93.39;96313.28;29395;254;63008;-72
2021/07/25 02:18:57;;;;;;;0.40;0.40;;;;;;;17.20;93.54;96308.94;29395;228;63005;-71
2021/07/25 02:19:30;;;;;;;0.40;0.40;;;;;;;17.18;93.78;96308.47;29395;205;63009;-70
2021/07/25 02:20:01;;;;;;;0.40;0.40;;;;;;;17.18;93.77;96316.72;29395;206;63005;-53
2021/07/25 02:20:34;;;;;;;0.40;0.40;;;;;;;17.17;93.37;96315.09;29394;263;64013;-72
2021/07/25 02:21:05;;;;;;;0.40;0.40;;;;;;;17.18;93.45;96313.16;29395;247;63005;-73
2021/07/25 02:21:36;;;;;;;0.40;0.40;;;;;;;17.18;93.62;96311.22;29395;213;63009;-73
2021/07/25 02:22:07;;;;;;;0.30;0.30;;;;;;;17.18;93.64;96305.75;29395;220;63005;-72
2021/07/25 02:22:38;;;;;;;0.40;0.40;;;;;;;17.18;93.50;96308.47;29395;239;63009;-72
2021/07/25 02:23:09;;;;;;;0.40;0.40;;;;;;;17.19;93.21;96307.34;29395;240;63004;-71
2021/07/25 02:23:40;;;;;;;0.40;0.40;;;;;;;17.19;93.43;96303.78;29395;212;63004;-52
2021/07/25 02:24:12;;;;;;;0.40;0.40;;;;;;;17.18;93.36;96310.44;29395;199;63004;-72
2021/07/25 02:24:43;;;;;;;0.40;0.40;;;;;;;17.17;93.56;96309.63;29394;196;64013;-53
2021/07/25 02:25:14;;;;;;;0.40;0.40;;;;;;;17.18;93.61;96315.91;29395;206;63004;-73
2021/07/25 02:25:45;;;;;;;0.40;0.40;;;;;;;17.16;93.58;96301.75;29395;208;63008;-52
2021/07/25 02:26:17;;;;;;;0.40;0.40;;;;;;;17.17;93.53;96311.56;29394;210;64009;-53
2021/07/25 02:26:50;;;;;;;0.40;0.40;;;;;;;17.15;93.64;96306.44;29395;237;63009;-72
2021/07/25 02:27:21;;;;;;;0.30;0.30;;;;;;;17.15;93.59;96309.19;29395;335;63005;-73
2021/07/25 02:27:52;;;;;;;0.40;0.40;;;;;;;17.15;93.85;96311.13;29395;252;63009;-73
2021/07/25 02:28:23;;;;;;;0.40;0.40;;;;;;;17.15;93.60;96300.94;29395;297;63005;-72
2021/07/25 02:28:54;;;;;;;0.40;0.40;;;;;;;17.16;93.67;96299.00;29395;253;63014;-53
2021/07/25 02:29:26;;;;;;;0.40;0.40;;;;;;;17.14;93.63;96299.34;29395;260;63005;-72
2021/07/25 02:29:57;;;;;;;0.50;0.50;;;;;;;17.13;93.71;96297.75;29395;338;63009;-71
2021/07/25 02:30:29;;;;;;;0.50;0.50;;;;;;;17.13;93.79;96292.28;29395;220;63004;-52
2021/07/25 02:31:00;;;;;;;0.40;0.40;;;;;;;17.12;93.73;96290.69;29395;202;63009;-70
2021/07/25 02:31:31;;;;;;;0.40;0.40;;;;;;;17.13;93.77;96284.06;29394;203;64009;-71
2021/07/25 02:32:07;;;;;;;0.40;0.40;;;;;;;17.13;93.74;96297.75;29395;227;63009;-53
2021/07/25 02:32:38;;;;;;;0.40;0.40;;;;;;;17.15;93.55;96300.16;29394;260;64008;-70
2021/07/25 02:33:10;;;;;;;0.40;0.40;;;;;;;17.15;93.65;96303.69;29394;201;64013;-71
2021/07/25 02:33:41;;;;;;;0.40;0.40;;;;;;;17.15;93.58;96306.44;29395;210;63015;-52
2021/07/25 02:34:13;;;;;;;0.40;0.40;;;;;;;17.16;93.23;96308.03;29395;343;63009;-73
2021/07/25 02:34:44;;;;;;;0.50;0.50;;;;;;;17.15;93.21;96294.66;29395;199;63005;-73
2021/07/25 02:35:16;;;;;;;0.40;0.40;;;;;;;17.17;93.26;96297.88;29395;234;63009;-72
2021/07/25 02:35:49;;;;;;;0.40;0.40;;;;;;;17.17;93.16;96304.16;29395;242;63005;-52
2021/07/25 02:36:20;;;;;;;0.43;0.43;;;;;;;17.18;93.17;96305.75;29395;202;63009;-53
2021/07/25 02:36:51;;;;;;;0.40;0.40;;;;;;;17.18;93.46;96316.72;29395;317;63005;-53
2021/07/25 02:37:22;;;;;;;0.40;0.40;;;;;;;17.16;93.26;96319.00;29394;197;64013;-73
2021/07/25 02:37:55;;;;;;;0.40;0.40;;;;;;;17.17;93.32;96317.06;29395;226;63004;-73
2021/07/25 02:38:27;;;;;;;0.40;0.40;;;;;;;17.16;93.48;96310.78;29395;218;63009;-53
2021/07/25 02:38:58;;;;;;;0.40;0.40;;;;;;;17.15;93.27;96303.69;29395;274;63004;-73
2021/07/25 02:39:29;;;;;;;0.50;0.50;;;;;;;17.16;93.55;96305.28;29395;197;63009;-53
2021/07/25 02:40:01;;;;;;;0.43;0.43;;;;;;;17.16;93.58;96301.75;29395;199;63004;-54